Time;durP1;ratioP1;P1;durP2;ratioP2;P2;SDS_P1;SDS_P2;PMS_P1;PMS_P2;Temp;Humidity;BMP_temperature;BMP_pressure;BME280_temperature;BME280_humidity;BME280_pressure;Samples;Min_cycle;Max_cycle;Signal;HPM_P1;HPM_P2
2022/10/06 00:00:11;;;;;;;17.02;7.05;;;;;;;;;;1029652;28;20023;-74
2022/10/06 00:00:42;;;;;;;18.63;8.48;;;;;;;;;;1029713;28;20034;-74
2022/10/06 00:01:16;;;;;;;22.05;10.15;;;;;;;;;;1029417;28;20102;-74
2022/10/06 00:01:46;;;;;;;17.10;7.20;;;;;;;;;;1030085;28;20022;-74
2022/10/06 00:02:20;;;;;;;22.40;8.50;;;;;;;;;;1029984;28;20030;-74
2022/10/06 00:02:51;;;;;;;25.75;9.55;;;;;;;;;;1029856;28;20041;-74
2022/10/06 00:03:24;;;;;;;25.42;8.25;;;;;;;;;;1025383;28;20019;-74
2022/10/06 00:03:55;;;;;;;26.60;8.45;;;;;;;;;;1027115;28;20029;-74
2022/10/06 00:04:25;;;;;;;18.52;7.50;;;;;;;;;;1026139;28;20074;-74
2022/10/06 00:04:56;;;;;;;89.03;12.18;;;;;;;;;;1025203;28;20031;-74
2022/10/06 00:05:27;;;;;;;380.65;37.92;;;;;;;;;;1026787;28;20061;-74
2022/10/06 00:05:59;;;;;;;219.00;28.42;;;;;;;;;;1027269;28;20061;-74
2022/10/06 00:06:29;;;;;;;157.13;15.57;;;;;;;;;;1023106;29;20019;-74
2022/10/06 00:07:00;;;;;;;146.05;19.60;;;;;;;;;;1020356;28;20500;-74
2022/10/06 00:07:31;;;;;;;157.73;20.98;;;;;;;;;;1022992;29;20692;-74
2022/10/06 00:08:02;;;;;;;289.90;33.20;;;;;;;;;;1023029;28;20031;-74
2022/10/06 00:08:33;;;;;;;197.60;29.20;;;;;;;;;;1023230;29;20102;-74
2022/10/06 00:09:04;;;;;;;79.25;11.43;;;;;;;;;;1023468;28;20055;-74
2022/10/06 00:09:34;;;;;;;109.60;15.45;;;;;;;;;;1027166;28;20109;-74
2022/10/06 00:10:05;;;;;;;56.33;9.75;;;;;;;;;;1029479;28;20050;-74
2022/10/06 00:10:36;;;;;;;38.65;8.73;;;;;;;;;;1029522;28;20050;-74
2022/10/06 00:11:07;;;;;;;45.65;10.35;;;;;;;;;;1029722;28;20041;-74
2022/10/06 00:11:38;;;;;;;55.97;10.40;;;;;;;;;;1029511;28;20482;-74
2022/10/06 00:12:08;;;;;;;41.33;10.65;;;;;;;;;;1029445;28;20066;-74
2022/10/06 00:12:44;;;;;;;79.13;11.15;;;;;;;;;;1029424;28;20029;-74
2022/10/06 00:13:14;;;;;;;143.80;18.55;;;;;;;;;;1029338;28;20116;-74
2022/10/06 00:13:45;;;;;;;121.13;14.52;;;;;;;;;;1029601;28;20049;-74
2022/10/06 00:14:15;;;;;;;155.50;21.25;;;;;;;;;;1027057;28;20399;-74
2022/10/06 00:14:46;;;;;;;146.30;17.30;;;;;;;;;;1027166;28;20062;-74
2022/10/06 00:15:19;;;;;;;159.13;18.67;;;;;;;;;;1027042;28;20030;-74
2022/10/06 00:15:49;;;;;;;84.22;13.00;;;;;;;;;;1025081;28;20023;-74
2022/10/06 00:16:21;;;;;;;88.43;13.15;;;;;;;;;;1024098;28;20384;-75
2022/10/06 00:16:51;;;;;;;80.78;11.18;;;;;;;;;;1025775;28;20452;-74
2022/10/06 00:17:22;;;;;;;63.05;12.18;;;;;;;;;;1023181;28;20035;-74
2022/10/06 00:17:53;;;;;;;101.57;14.05;;;;;;;;;;1026546;28;20026;-74
2022/10/06 00:18:23;;;;;;;121.38;15.80;;;;;;;;;;1027131;28;20058;-74
2022/10/06 00:18:55;;;;;;;75.72;12.77;;;;;;;;;;1027276;28;20033;-74
2022/10/06 00:19:26;;;;;;;95.40;13.38;;;;;;;;;;1029417;28;20054;-74
2022/10/06 00:19:56;;;;;;;101.10;12.95;;;;;;;;;;1025124;28;20387;-74
2022/10/06 00:20:27;;;;;;;69.00;10.95;;;;;;;;;;1025275;28;20055;-74
2022/10/06 00:21:00;;;;;;;69.13;12.63;;;;;;;;;;1025235;28;20030;-74
2022/10/06 00:21:30;;;;;;;50.80;8.43;;;;;;;;;;1026543;28;20058;-74
2022/10/06 00:22:01;;;;;;;17.70;6.85;;;;;;;;;;1028436;28;20110;-74
2022/10/06 00:22:42;;;;;;;27.90;8.75;;;;;;;;;;1028628;28;20027;-74
2022/10/06 00:23:13;;;;;;;50.10;8.05;;;;;;;;;;1029386;28;20411;-74
2022/10/06 00:23:44;;;;;;;46.95;9.82;;;;;;;;;;1026998;28;20026;-74
2022/10/06 00:24:14;;;;;;;56.53;9.07;;;;;;;;;;1026104;28;20553;-74
2022/10/06 00:24:45;;;;;;;28.48;8.60;;;;;;;;;;1027194;28;20027;-74
2022/10/06 00:25:17;;;;;;;21.52;7.72;;;;;;;;;;1016480;28;20044;-74
2022/10/06 00:25:47;;;;;;;34.53;9.25;;;;;;;;;;1029254;28;20050;-74
2022/10/06 00:26:18;;;;;;;49.25;8.70;;;;;;;;;;1024950;28;20037;-74
2022/10/06 00:26:48;;;;;;;36.47;8.65;;;;;;;;;;1025234;28;20066;-74
2022/10/06 00:27:19;;;;;;;31.25;6.38;;;;;;;;;;1025163;28;20146;-74
2022/10/06 00:27:50;;;;;;;31.05;11.23;;;;;;;;;;1025072;28;20059;-74
2022/10/06 00:28:21;;;;;;;20.85;6.18;;;;;;;;;;1025246;28;20029;-74
2022/10/06 00:28:52;;;;;;;28.25;6.78;;;;;;;;;;1025249;28;20035;-74
2022/10/06 00:29:22;;;;;;;10.82;5.97;;;;;;;;;;1024068;28;20161;-74
2022/10/06 00:29:53;;;;;;;25.85;7.40;;;;;;;;;;1025297;28;20023;-74
2022/10/06 00:30:25;;;;;;;24.20;6.28;;;;;;;;;;1022720;29;20036;-74
2022/10/06 00:30:59;;;;;;;13.35;5.97;;;;;;;;;;1023283;29;20034;-74
2022/10/06 00:31:30;;;;;;;19.08;7.00;;;;;;;;;;1022374;29;20037;-74
2022/10/06 00:32:00;;;;;;;15.60;6.70;;;;;;;;;;1024542;28;20027;-73
2022/10/06 00:32:31;;;;;;;13.25;8.43;;;;;;;;;;1028996;28;20030;-74
2022/10/06 00:33:03;;;;;;;23.83;6.13;;;;;;;;;;1028123;28;20037;-74
2022/10/06 00:33:34;;;;;;;13.98;6.20;;;;;;;;;;1032612;28;20181;-74
2022/10/06 00:34:04;;;;;;;23.33;6.85;;;;;;;;;;1023963;28;20023;-74
2022/10/06 00:34:38;;;;;;;14.05;5.53;;;;;;;;;;1024954;28;20062;-74
2022/10/06 00:35:08;;;;;;;18.27;6.05;;;;;;;;;;1025020;28;20027;-74
2022/10/06 00:35:39;;;;;;;25.83;6.97;;;;;;;;;;1025267;28;20118;-75
2022/10/06 00:36:10;;;;;;;13.40;6.13;;;;;;;;;;1025013;28;20071;-73
2022/10/06 00:36:40;;;;;;;18.30;5.57;;;;;;;;;;1025256;28;20050;-74
2022/10/06 00:37:11;;;;;;;13.80;5.85;;;;;;;;;;1024551;28;20066;-74
2022/10/06 00:37:41;;;;;;;22.92;7.20;;;;;;;;;;1028999;28;20094;-74
2022/10/06 00:38:13;;;;;;;12.75;5.93;;;;;;;;;;1029471;28;20034;-74
2022/10/06 00:38:44;;;;;;;9.00;4.57;;;;;;;;;;1028729;28;20037;-73
2022/10/06 00:39:14;;;;;;;19.42;5.97;;;;;;;;;;1028586;28;20025;-74
2022/10/06 00:39:45;;;;;;;27.77;7.43;;;;;;;;;;1029198;28;20534;-74
2022/10/06 00:40:16;;;;;;;15.23;6.07;;;;;;;;;;1027348;28;20030;-74
2022/10/06 00:40:48;;;;;;;27.42;5.88;;;;;;;;;;1027987;28;20173;-74
2022/10/06 00:41:18;;;;;;;12.13;5.13;;;;;;;;;;1027681;28;20026;-74
2022/10/06 00:41:49;;;;;;;16.10;7.00;;;;;;;;;;1027723;28;20034;-74
2022/10/06 00:42:27;;;;;;;22.17;7.65;;;;;;;;;;1030180;28;20368;-75
2022/10/06 00:42:58;;;;;;;16.48;5.13;;;;;;;;;;1030248;28;20026;-74
2022/10/06 00:43:44;;;;;;;10.55;5.80;;;;;;;;;;1030331;28;20072;-74
2022/10/06 00:44:14;;;;;;;9.95;4.60;;;;;;;;;;1028325;28;20022;-74
2022/10/06 00:44:47;;;;;;;15.98;5.75;;;;;;;;;;1029506;28;20030;-74
2022/10/06 00:45:20;;;;;;;11.90;6.10;;;;;;;;;;1031025;28;20026;-74
2022/10/06 00:45:51;;;;;;;14.48;5.70;;;;;;;;;;1029744;28;20015;-74
2022/10/06 00:46:36;;;;;;;25.38;5.18;;;;;;;;;;1028645;28;20030;-74
2022/10/06 00:47:06;;;;;;;16.27;4.40;;;;;;;;;;1029996;28;20019;-74
2022/10/06 00:47:37;;;;;;;26.02;4.90;;;;;;;;;;1029986;28;20507;-74
2022/10/06 00:48:20;;;;;;;33.60;6.25;;;;;;;;;;1030184;28;20054;-74
2022/10/06 00:49:00;;;;;;;13.35;5.82;;;;;;;;;;1030137;28;20023;-74
2022/10/06 00:49:35;;;;;;;9.18;6.07;;;;;;;;;;1029965;28;20062;-74
2022/10/06 00:50:05;;;;;;;11.40;5.50;;;;;;;;;;1030063;28;20070;-74
2022/10/06 00:50:37;;;;;;;7.70;4.28;;;;;;;;;;1030899;28;20026;-74
2022/10/06 00:51:07;;;;;;;8.50;3.67;;;;;;;;;;1029660;28;20467;-74
2022/10/06 00:51:39;;;;;;;10.70;5.97;;;;;;;;;;1029616;28;20023;-74
2022/10/06 00:52:13;;;;;;;17.25;5.85;;;;;;;;;;1030292;28;20109;-74
2022/10/06 00:52:43;;;;;;;7.25;4.68;;;;;;;;;;1030656;28;20501;-74
2022/10/06 00:53:14;;;;;;;14.68;5.22;;;;;;;;;;1030089;28;20069;-74
2022/10/06 00:53:45;;;;;;;9.95;4.30;;;;;;;;;;1029868;28;20037;-75
2022/10/06 00:54:16;;;;;;;15.45;4.88;;;;;;;;;;1030637;28;20026;-75
2022/10/06 00:54:47;;;;;;;22.88;4.75;;;;;;;;;;1025974;28;20070;-75
2022/10/06 00:55:19;;;;;;;11.18;5.03;;;;;;;;;;1024418;28;20211;-74
2022/10/06 00:55:49;;;;;;;15.55;4.50;;;;;;;;;;1025643;28;20031;-74
2022/10/06 00:56:20;;;;;;;26.77;5.65;;;;;;;;;;1026355;28;20074;-74
2022/10/06 00:56:51;;;;;;;16.17;5.40;;;;;;;;;;1028931;28;20109;-74
2022/10/06 00:57:21;;;;;;;10.55;5.65;;;;;;;;;;1028990;28;20089;-74
2022/10/06 00:57:52;;;;;;;17.60;5.25;;;;;;;;;;1025711;28;20546;-74
2022/10/06 00:58:23;;;;;;;25.83;6.45;;;;;;;;;;1026839;28;20035;-74
2022/10/06 00:58:54;;;;;;;14.40;5.85;;;;;;;;;;1022444;29;20478;-74
2022/10/06 00:59:24;;;;;;;16.08;5.93;;;;;;;;;;1021965;28;20028;-74
2022/10/06 00:59:55;;;;;;;12.50;5.75;;;;;;;;;;1025134;28;20030;-74
2022/10/06 01:00:26;;;;;;;21.60;5.60;;;;;;;;;;1025786;28;20094;-74
2022/10/06 01:00:58;;;;;;;13.40;7.55;;;;;;;;;;1032205;28;20038;-74
2022/10/06 01:01:30;;;;;;;21.77;11.25;;;;;;;;;;1031084;28;20010;-74
2022/10/06 01:02:00;;;;;;;36.63;15.93;;;;;;;;;;1030501;28;20114;-76
2022/10/06 01:02:37;;;;;;;30.92;12.02;;;;;;;;;;1026138;28;20456;-74
2022/10/06 01:03:10;;;;;;;21.95;7.60;;;;;;;;;;1027064;28;20515;-75
2022/10/06 01:03:43;;;;;;;14.77;5.32;;;;;;;;;;1026972;28;20114;-75
2022/10/06 01:04:14;;;;;;;11.60;4.88;;;;;;;;;;1024001;28;20054;-75
2022/10/06 01:04:47;;;;;;;23.90;8.90;;;;;;;;;;1028400;28;20046;-75
2022/10/06 01:05:21;;;;;;;12.52;6.85;;;;;;;;;;1028959;28;20073;-75
2022/10/06 01:05:53;;;;;;;20.10;7.47;;;;;;;;;;1030397;28;20037;-75
2022/10/06 01:06:24;;;;;;;18.83;8.57;;;;;;;;;;1028555;28;20399;-74
2022/10/06 01:06:56;;;;;;;29.08;11.73;;;;;;;;;;1023596;28;20026;-75
2022/10/06 01:07:27;;;;;;;26.98;9.80;;;;;;;;;;1023624;29;20464;-75
2022/10/06 01:07:58;;;;;;;20.73;8.60;;;;;;;;;;1023816;28;20019;-75
2022/10/06 01:08:29;;;;;;;18.38;6.57;;;;;;;;;;1024800;28;20023;-75
2022/10/06 01:09:00;;;;;;;15.25;6.22;;;;;;;;;;1030891;28;20092;-75
2022/10/06 01:09:31;;;;;;;23.38;8.35;;;;;;;;;;1028954;28;20117;-75
2022/10/06 01:10:02;;;;;;;21.63;9.35;;;;;;;;;;1029844;28;20081;-75
2022/10/06 01:10:32;;;;;;;12.68;6.40;;;;;;;;;;1031007;28;20045;-75
2022/10/06 01:11:03;;;;;;;23.92;9.63;;;;;;;;;;1030409;28;20109;-75
2022/10/06 01:11:36;;;;;;;28.98;10.02;;;;;;;;;;1029710;28;20451;-75
2022/10/06 01:12:07;;;;;;;25.50;8.30;;;;;;;;;;1030899;28;20018;-75
2022/10/06 01:12:38;;;;;;;16.65;8.43;;;;;;;;;;1029891;28;20117;-75
2022/10/06 01:13:10;;;;;;;26.75;9.10;;;;;;;;;;1027356;28;20026;-75
2022/10/06 01:13:44;;;;;;;35.05;9.88;;;;;;;;;;1023227;29;20093;-75
2022/10/06 01:14:15;;;;;;;22.67;8.93;;;;;;;;;;1023758;29;20026;-75
2022/10/06 01:14:46;;;;;;;23.27;10.85;;;;;;;;;;1023337;28;20035;-75
2022/10/06 01:15:17;;;;;;;15.60;7.35;;;;;;;;;;1026333;28;20066;-75
2022/10/06 01:16:10;;;;;;;21.85;10.55;;;;;;;;;;1026660;28;20023;-75
2022/10/06 01:16:42;;;;;;;21.63;7.18;;;;;;;;;;1017173;28;20566;-75
2022/10/06 01:17:15;;;;;;;18.10;7.00;;;;;;;;;;1028774;28;20449;-74
2022/10/06 01:17:53;;;;;;;14.18;7.32;;;;;;;;;;1032945;28;20022;-75
2022/10/06 01:18:26;;;;;;;25.63;8.65;;;;;;;;;;1033010;28;20050;-74
2022/10/06 01:18:57;;;;;;;16.92;7.15;;;;;;;;;;1031405;28;20128;-75
2022/10/06 01:19:31;;;;;;;20.77;5.20;;;;;;;;;;1029248;28;20034;-74
2022/10/06 01:20:07;;;;;;;9.43;5.93;;;;;;;;;;1028353;28;20118;-74
2022/10/06 01:20:44;;;;;;;17.15;6.93;;;;;;;;;;1029036;28;20023;-75
2022/10/06 01:21:15;;;;;;;19.27;7.18;;;;;;;;;;1028776;28;20023;-75
2022/10/06 01:21:46;;;;;;;12.65;6.22;;;;;;;;;;1029220;28;20022;-75
2022/10/06 01:22:18;;;;;;;26.38;8.52;;;;;;;;;;1025656;28;20019;-75
2022/10/06 01:22:57;;;;;;;22.92;7.45;;;;;;;;;;1028832;28;20026;-74
2022/10/06 01:23:30;;;;;;;12.48;6.47;;;;;;;;;;1027810;28;20030;-75
2022/10/06 01:24:03;;;;;;;12.15;6.63;;;;;;;;;;1029862;28;20542;-75
2022/10/06 01:24:34;;;;;;;24.27;5.85;;;;;;;;;;1027030;28;20606;-74
2022/10/06 01:25:05;;;;;;;25.98;7.90;;;;;;;;;;1024592;28;20041;-75
2022/10/06 01:25:37;;;;;;;13.93;4.95;;;;;;;;;;1024680;28;20073;-76
2022/10/06 01:26:09;;;;;;;20.95;5.13;;;;;;;;;;1025120;28;20471;-75
2022/10/06 01:26:43;;;;;;;12.18;5.70;;;;;;;;;;1029529;28;20014;-75
2022/10/06 01:27:14;;;;;;;22.67;7.47;;;;;;;;;;1026989;28;20074;-75
2022/10/06 01:27:52;;;;;;;9.88;6.45;;;;;;;;;;1025749;28;20065;-78
2022/10/06 01:28:23;;;;;;;13.07;7.35;;;;;;;;;;1024519;28;20019;-74
2022/10/06 01:28:53;;;;;;;16.73;6.13;;;;;;;;;;1024403;28;20431;-74
2022/10/06 01:29:24;;;;;;;22.45;6.50;;;;;;;;;;1025505;28;20035;-75
2022/10/06 01:30:07;;;;;;;7.85;4.97;;;;;;;;;;1029753;28;20033;-75
2022/10/06 01:30:44;;;;;;;14.77;6.05;;;;;;;;;;1032172;28;20025;-75
2022/10/06 01:31:15;;;;;;;18.83;7.10;;;;;;;;;;1027053;28;20019;-75
2022/10/06 01:31:46;;;;;;;12.35;5.88;;;;;;;;;;1026222;28;20161;-76
2022/10/06 01:32:16;;;;;;;12.02;6.40;;;;;;;;;;1025869;28;20031;-76
2022/10/06 01:32:47;;;;;;;12.82;6.15;;;;;;;;;;1025876;28;20406;-76
2022/10/06 01:33:18;;;;;;;12.43;5.30;;;;;;;;;;1024336;28;20077;-75
2022/10/06 01:33:50;;;;;;;32.28;6.22;;;;;;;;;;1026442;28;20034;-76
2022/10/06 01:34:20;;;;;;;17.92;7.50;;;;;;;;;;1031194;28;20032;-76
2022/10/06 01:34:51;;;;;;;24.67;6.88;;;;;;;;;;1028501;28;20470;-76
2022/10/06 01:35:22;;;;;;;32.17;9.93;;;;;;;;;;1027579;28;20118;-75
2022/10/06 01:35:52;;;;;;;17.85;7.68;;;;;;;;;;1027506;28;20062;-75
2022/10/06 01:36:23;;;;;;;21.15;9.55;;;;;;;;;;1023562;28;20023;-75
2022/10/06 01:36:54;;;;;;;21.75;7.93;;;;;;;;;;1027317;28;20097;-75
2022/10/06 01:37:24;;;;;;;21.55;6.63;;;;;;;;;;1028215;28;20031;-75
2022/10/06 01:37:57;;;;;;;22.73;8.13;;;;;;;;;;1024857;28;20399;-75
2022/10/06 01:38:28;;;;;;;22.23;7.65;;;;;;;;;;1026818;28;20070;-75
2022/10/06 01:38:58;;;;;;;21.90;8.25;;;;;;;;;;1027004;28;20023;-75
2022/10/06 01:39:29;;;;;;;18.55;8.32;;;;;;;;;;1027283;28;20067;-75
2022/10/06 01:40:00;;;;;;;22.13;10.13;;;;;;;;;;1027037;28;20042;-75
2022/10/06 01:40:30;;;;;;;17.27;7.82;;;;;;;;;;1029191;28;20026;-76
2022/10/06 01:41:01;;;;;;;19.90;8.18;;;;;;;;;;1029504;28;20466;-75
2022/10/06 01:41:33;;;;;;;34.95;8.65;;;;;;;;;;1031072;28;20160;-75
2022/10/06 01:42:03;;;;;;;19.20;7.70;;;;;;;;;;1025273;28;20027;-75
2022/10/06 01:42:35;;;;;;;21.15;7.43;;;;;;;;;;1025045;28;20046;-76
2022/10/06 01:43:05;;;;;;;17.42;7.25;;;;;;;;;;1026820;28;20034;-76
2022/10/06 01:43:36;;;;;;;20.55;8.38;;;;;;;;;;1025124;28;20031;-76
2022/10/06 01:44:06;;;;;;;33.58;10.20;;;;;;;;;;1025840;28;20454;-75
2022/10/06 01:44:37;;;;;;;35.03;11.18;;;;;;;;;;1029717;28;20038;-75
2022/10/06 01:45:08;;;;;;;24.05;10.98;;;;;;;;;;1029292;28;20030;-75
2022/10/06 01:45:38;;;;;;;31.52;9.63;;;;;;;;;;1029003;28;20576;-75
2022/10/06 01:46:09;;;;;;;33.03;12.23;;;;;;;;;;1028876;28;20131;-75
2022/10/06 01:46:39;;;;;;;31.70;11.07;;;;;;;;;;1027392;28;20036;-76
2022/10/06 01:47:10;;;;;;;13.65;7.20;;;;;;;;;;1027464;28;20525;-76
2022/10/06 01:47:40;;;;;;;33.30;10.20;;;;;;;;;;1027920;28;20613;-75
2022/10/06 01:48:11;;;;;;;36.00;9.65;;;;;;;;;;1028532;28;20113;-76
2022/10/06 01:48:42;;;;;;;26.30;8.15;;;;;;;;;;1026284;28;20158;-75
2022/10/06 01:49:12;;;;;;;20.27;10.00;;;;;;;;;;1027811;28;20266;-76
2022/10/06 01:49:43;;;;;;;24.48;10.25;;;;;;;;;;1026881;28;20464;-75
2022/10/06 01:50:17;;;;;;;21.50;9.63;;;;;;;;;;1027064;28;20081;-75
2022/10/06 01:50:48;;;;;;;24.10;9.30;;;;;;;;;;1028376;28;20038;-76
2022/10/06 01:51:18;;;;;;;26.98;9.77;;;;;;;;;;1020856;28;20448;-76
2022/10/06 01:51:49;;;;;;;25.83;8.95;;;;;;;;;;1021178;28;20027;-76
2022/10/06 01:52:20;;;;;;;39.38;9.48;;;;;;;;;;1018464;29;21479;-75
2022/10/06 01:52:50;;;;;;;32.75;10.60;;;;;;;;;;1024270;28;20467;-76
2022/10/06 01:53:21;;;;;;;42.13;10.73;;;;;;;;;;1024082;28;20527;-76
2022/10/06 01:53:52;;;;;;;26.10;10.30;;;;;;;;;;1026234;28;20050;-76
2022/10/06 01:54:22;;;;;;;30.17;9.05;;;;;;;;;;1028349;28;20317;-76
2022/10/06 01:54:53;;;;;;;25.08;10.43;;;;;;;;;;1029024;28;20440;-76
2022/10/06 01:55:24;;;;;;;31.17;10.20;;;;;;;;;;1028369;28;20836;-76
2022/10/06 01:55:58;;;;;;;30.90;8.85;;;;;;;;;;1027590;28;20027;-76
2022/10/06 01:56:29;;;;;;;18.92;9.80;;;;;;;;;;1026399;28;20186;-76
2022/10/06 01:56:59;;;;;;;20.08;8.60;;;;;;;;;;1026053;28;20583;-76
2022/10/06 01:57:30;;;;;;;26.63;9.80;;;;;;;;;;1026561;28;20053;-76
2022/10/06 01:58:00;;;;;;;35.47;9.50;;;;;;;;;;1028791;28;20337;-75
2022/10/06 01:58:31;;;;;;;35.65;12.68;;;;;;;;;;1025284;28;20037;-75
2022/10/06 01:59:02;;;;;;;25.63;9.27;;;;;;;;;;1025278;28;20069;-76
2022/10/06 01:59:32;;;;;;;36.88;11.32;;;;;;;;;;1025858;28;20114;-75
2022/10/06 02:00:03;;;;;;;34.13;10.75;;;;;;;;;;1024092;28;20023;-76
2022/10/06 02:00:34;;;;;;;28.35;9.07;;;;;;;;;;1029714;28;20033;-75
2022/10/06 02:01:06;;;;;;;30.08;12.45;;;;;;;;;;1029176;28;20487;-75
2022/10/06 02:01:36;;;;;;;32.22;9.65;;;;;;;;;;1029346;28;20037;-76
2022/10/06 02:02:07;;;;;;;28.63;10.95;;;;;;;;;;1029365;28;20034;-76
2022/10/06 02:02:37;;;;;;;30.00;12.73;;;;;;;;;;1030210;28;20449;-76
2022/10/06 02:03:08;;;;;;;37.22;9.68;;;;;;;;;;1025749;28;20078;-76
2022/10/06 02:03:39;;;;;;;41.30;10.70;;;;;;;;;;1025189;28;20015;-76
2022/10/06 02:04:10;;;;;;;20.70;9.55;;;;;;;;;;1022914;28;20031;-76
2022/10/06 02:04:40;;;;;;;18.75;9.63;;;;;;;;;;1024040;28;20023;-76
2022/10/06 02:05:11;;;;;;;31.17;10.30;;;;;;;;;;1029408;28;20573;-76
2022/10/06 02:05:42;;;;;;;36.05;11.02;;;;;;;;;;1023462;28;20027;-76
2022/10/06 02:06:12;;;;;;;32.08;11.32;;;;;;;;;;1021229;28;20047;-76
2022/10/06 02:06:43;;;;;;;44.05;12.57;;;;;;;;;;1017083;29;20448;-76
2022/10/06 02:07:13;;;;;;;30.25;10.93;;;;;;;;;;1016569;28;20449;-76
2022/10/06 02:07:44;;;;;;;35.70;10.50;;;;;;;;;;1020641;28;20168;-76
2022/10/06 02:08:15;;;;;;;19.60;9.63;;;;;;;;;;1020715;28;20067;-76
2022/10/06 02:08:46;;;;;;;34.42;11.93;;;;;;;;;;1023522;28;20417;-76
2022/10/06 02:09:17;;;;;;;22.77;10.68;;;;;;;;;;1023603;28;20873;-76
2022/10/06 02:09:47;;;;;;;35.20;11.50;;;;;;;;;;1025934;28;20708;-76
2022/10/06 02:10:18;;;;;;;28.95;11.43;;;;;;;;;;1026246;28;20031;-76
2022/10/06 02:10:49;;;;;;;45.28;12.10;;;;;;;;;;1026512;28;20114;-75
2022/10/06 02:11:19;;;;;;;34.42;13.05;;;;;;;;;;1027438;28;20027;-76
2022/10/06 02:11:50;;;;;;;27.38;15.15;;;;;;;;;;1027613;28;20073;-75
2022/10/06 02:12:21;;;;;;;36.90;12.52;;;;;;;;;;1027641;28;20042;-75
2022/10/06 02:12:52;;;;;;;57.17;13.88;;;;;;;;;;1026972;28;20743;-76
2022/10/06 02:13:23;;;;;;;47.33;17.30;;;;;;;;;;1021444;28;20038;-76
2022/10/06 02:13:54;;;;;;;41.25;15.45;;;;;;;;;;1021960;28;20122;-76
2022/10/06 02:14:25;;;;;;;22.02;13.02;;;;;;;;;;1025315;28;20521;-76
2022/10/06 02:14:55;;;;;;;30.30;11.65;;;;;;;;;;1021895;29;20019;-76
2022/10/06 02:15:27;;;;;;;45.78;15.32;;;;;;;;;;1022100;28;20022;-76
2022/10/06 02:15:57;;;;;;;19.92;11.45;;;;;;;;;;1021927;28;20473;-76
2022/10/06 02:16:28;;;;;;;32.88;14.05;;;;;;;;;;1023020;28;20089;-76
2022/10/06 02:16:59;;;;;;;28.42;11.88;;;;;;;;;;1029808;28;20113;-76
2022/10/06 02:17:30;;;;;;;18.05;9.98;;;;;;;;;;1027486;28;20455;-76
2022/10/06 02:18:01;;;;;;;24.00;11.10;;;;;;;;;;1028738;28;20063;-76
2022/10/06 02:18:32;;;;;;;27.83;8.95;;;;;;;;;;1029949;28;20069;-76
2022/10/06 02:19:03;;;;;;;19.17;9.18;;;;;;;;;;1028871;28;20117;-76
2022/10/06 02:19:34;;;;;;;28.02;9.70;;;;;;;;;;1031353;28;20022;-76
2022/10/06 02:20:05;;;;;;;20.88;9.77;;;;;;;;;;1031129;28;20037;-76
2022/10/06 02:20:36;;;;;;;32.38;10.23;;;;;;;;;;1029899;28;20030;-75
2022/10/06 02:21:12;;;;;;;22.63;9.05;;;;;;;;;;1030663;28;20034;-76
2022/10/06 02:21:42;;;;;;;18.60;9.27;;;;;;;;;;1025295;28;21293;-76
2022/10/06 02:22:13;;;;;;;13.95;7.95;;;;;;;;;;1021993;28;20055;-75
2022/10/06 02:22:43;;;;;;;20.80;9.60;;;;;;;;;;1021324;29;20062;-75
2022/10/06 02:23:14;;;;;;;23.33;9.70;;;;;;;;;;1021766;28;20027;-76
2022/10/06 02:23:44;;;;;;;22.90;8.98;;;;;;;;;;1024133;28;20110;-76
2022/10/06 02:24:15;;;;;;;23.20;9.02;;;;;;;;;;1030790;28;20014;-75
2022/10/06 02:24:46;;;;;;;17.88;9.60;;;;;;;;;;1030786;28;20049;-75
2022/10/06 02:25:16;;;;;;;19.23;8.50;;;;;;;;;;1030693;28;20160;-76
2022/10/06 02:25:47;;;;;;;17.13;8.73;;;;;;;;;;1024852;28;20035;-75
2022/10/06 02:26:18;;;;;;;18.65;10.10;;;;;;;;;;1021222;28;20030;-75
2022/10/06 02:26:48;;;;;;;23.90;12.05;;;;;;;;;;1020519;28;20579;-75
2022/10/06 02:27:19;;;;;;;18.95;9.63;;;;;;;;;;1019466;28;20037;-76
2022/10/06 02:27:49;;;;;;;40.17;11.20;;;;;;;;;;1022836;28;20037;-76
2022/10/06 02:28:20;;;;;;;23.85;10.30;;;;;;;;;;1029462;28;20030;-75
2022/10/06 02:28:51;;;;;;;20.05;9.18;;;;;;;;;;1025340;28;20041;-76
2022/10/06 02:29:22;;;;;;;21.65;9.82;;;;;;;;;;1027849;28;20414;-75
2022/10/06 02:29:54;;;;;;;27.95;10.32;;;;;;;;;;1026929;28;20030;-76
2022/10/06 02:30:25;;;;;;;25.92;9.30;;;;;;;;;;1024283;28;20082;-75
2022/10/06 02:31:00;;;;;;;22.95;11.43;;;;;;;;;;1028786;28;20068;-76
2022/10/06 02:31:30;;;;;;;28.67;9.90;;;;;;;;;;1020881;28;20082;-76
2022/10/06 02:32:01;;;;;;;28.90;10.50;;;;;;;;;;1023183;28;20455;-76
2022/10/06 02:32:35;;;;;;;17.30;8.93;;;;;;;;;;1026722;28;20117;-76
2022/10/06 02:33:06;;;;;;;29.63;9.20;;;;;;;;;;1022383;28;20595;-76
2022/10/06 02:33:37;;;;;;;18.88;9.23;;;;;;;;;;1023809;28;20118;-76
2022/10/06 02:34:08;;;;;;;24.17;9.38;;;;;;;;;;1025370;28;20026;-76
2022/10/06 02:34:39;;;;;;;25.23;10.00;;;;;;;;;;1019384;28;20058;-76
2022/10/06 02:35:11;;;;;;;27.98;9.55;;;;;;;;;;1028828;28;20037;-76
2022/10/06 02:35:42;;;;;;;27.08;10.50;;;;;;;;;;1028444;28;20042;-76
2022/10/06 02:36:14;;;;;;;23.02;10.02;;;;;;;;;;1030140;28;20402;-76
2022/10/06 02:36:45;;;;;;;22.88;8.90;;;;;;;;;;1029580;28;20625;-76
2022/10/06 02:37:16;;;;;;;28.20;8.73;;;;;;;;;;1028552;28;20379;-76
2022/10/06 02:37:48;;;;;;;31.60;9.85;;;;;;;;;;1031520;28;20372;-77
2022/10/06 02:38:18;;;;;;;15.98;9.45;;;;;;;;;;1030030;28;20076;-76
2022/10/06 02:38:49;;;;;;;27.20;10.40;;;;;;;;;;1032412;28;20034;-76
2022/10/06 02:39:20;;;;;;;29.35;11.35;;;;;;;;;;1028160;28;20240;-77
2022/10/06 02:39:50;;;;;;;22.10;10.05;;;;;;;;;;1029440;28;20474;-75
2022/10/06 02:40:21;;;;;;;29.13;11.50;;;;;;;;;;1029831;28;20030;-76
2022/10/06 02:40:52;;;;;;;22.55;9.10;;;;;;;;;;1024584;28;20037;-76
2022/10/06 02:41:23;;;;;;;28.95;10.07;;;;;;;;;;1023092;28;20030;-76
2022/10/06 02:41:54;;;;;;;37.17;13.02;;;;;;;;;;1024104;28;20035;-76
2022/10/06 02:42:25;;;;;;;24.88;9.18;;;;;;;;;;1022645;28;20031;-76
2022/10/06 02:42:55;;;;;;;28.88;11.02;;;;;;;;;;1022919;28;20030;-76
2022/10/06 02:43:28;;;;;;;19.40;9.32;;;;;;;;;;1024793;28;20093;-76
2022/10/06 02:43:59;;;;;;;26.60;12.55;;;;;;;;;;1022097;28;20606;-76
2022/10/06 02:44:29;;;;;;;28.92;9.82;;;;;;;;;;1024168;28;20111;-76
2022/10/06 02:45:00;;;;;;;21.77;9.25;;;;;;;;;;1025754;28;20493;-76
2022/10/06 02:45:31;;;;;;;21.52;9.77;;;;;;;;;;1026111;28;20039;-75
2022/10/06 02:46:06;;;;;;;31.58;9.75;;;;;;;;;;1028998;28;20027;-76
2022/10/06 02:46:37;;;;;;;25.77;10.80;;;;;;;;;;1027909;28;20026;-75
2022/10/06 02:47:12;;;;;;;29.80;12.27;;;;;;;;;;1028772;28;20023;-75
2022/10/06 02:47:43;;;;;;;40.10;14.43;;;;;;;;;;1023924;28;20034;-76
2022/10/06 02:48:14;;;;;;;26.08;11.82;;;;;;;;;;1022024;28;20701;-76
2022/10/06 02:48:44;;;;;;;32.13;9.93;;;;;;;;;;1024120;28;20082;-75
2022/10/06 02:49:15;;;;;;;25.75;10.40;;;;;;;;;;1022471;28;20058;-77
2022/10/06 02:49:47;;;;;;;23.75;8.85;;;;;;;;;;1027804;28;20041;-77
2022/10/06 02:50:17;;;;;;;26.42;9.45;;;;;;;;;;1030206;28;20066;-76
2022/10/06 02:50:55;;;;;;;25.55;12.98;;;;;;;;;;1028869;28;20034;-77
2022/10/06 02:51:25;;;;;;;22.90;10.32;;;;;;;;;;1027428;28;20580;-78
2022/10/06 02:51:56;;;;;;;42.92;15.80;;;;;;;;;;1029271;28;20061;-76
2022/10/06 02:52:32;;;;;;;36.70;15.48;;;;;;;;;;1023855;28;20042;-77
2022/10/06 02:53:05;;;;;;;42.10;16.70;;;;;;;;;;1023698;28;20035;-75
2022/10/06 02:53:36;;;;;;;38.75;13.93;;;;;;;;;;1023530;28;20975;-75
2022/10/06 02:54:07;;;;;;;29.95;11.82;;;;;;;;;;1024476;28;20037;-76
2022/10/06 02:54:38;;;;;;;33.92;14.77;;;;;;;;;;1027285;28;20477;-76
2022/10/06 02:55:09;;;;;;;52.83;19.83;;;;;;;;;;1027856;28;20054;-77
2022/10/06 02:55:39;;;;;;;46.95;19.20;;;;;;;;;;1025429;28;20574;-76
2022/10/06 02:56:14;;;;;;;55.58;19.48;;;;;;;;;;1024776;28;20085;-75
2022/10/06 02:56:45;;;;;;;70.10;22.35;;;;;;;;;;1024614;28;20027;-76
2022/10/06 02:57:16;;;;;;;63.35;16.45;;;;;;;;;;1022373;28;20031;-78
2022/10/06 02:57:47;;;;;;;66.07;20.95;;;;;;;;;;1025368;28;20015;-76
2022/10/06 02:58:18;;;;;;;82.13;27.45;;;;;;;;;;1025611;28;20093;-75
2022/10/06 02:58:50;;;;;;;68.63;27.13;;;;;;;;;;1024381;28;20122;-75
2022/10/06 02:59:20;;;;;;;69.90;19.55;;;;;;;;;;1024358;28;20133;-75
2022/10/06 02:59:51;;;;;;;67.53;22.45;;;;;;;;;;1023221;28;20943;-76
2022/10/06 03:00:22;;;;;;;71.60;25.27;;;;;;;;;;1021430;28;20561;-76
2022/10/06 03:00:53;;;;;;;65.50;24.25;;;;;;;;;;1021380;28;20423;-76
2022/10/06 03:01:24;;;;;;;66.80;26.50;;;;;;;;;;1024698;28;20033;-76
2022/10/06 03:01:55;;;;;;;69.05;26.30;;;;;;;;;;1023620;28;20423;-76
2022/10/06 03:02:32;;;;;;;65.93;23.48;;;;;;;;;;1024016;28;20031;-76
2022/10/06 03:03:02;;;;;;;65.10;19.45;;;;;;;;;;1021200;28;20420;-76
2022/10/06 03:03:34;;;;;;;47.13;20.83;;;;;;;;;;1021047;28;20035;-76
2022/10/06 03:04:05;;;;;;;44.83;18.35;;;;;;;;;;1021722;28;20593;-75
2022/10/06 03:04:37;;;;;;;50.00;16.13;;;;;;;;;;1023812;28;20527;-75
2022/10/06 03:05:09;;;;;;;40.75;16.67;;;;;;;;;;1021253;29;20045;-76